sensor_id;sensor_type;location;lat;lon;timestamp;P1;durP1;ratioP1;P2;durP2;ratioP2
60086;SDS011;45960;53.630;55.972;2023-04-24T00:00:44;11.93;;;7.18;;
60086;SDS011;45960;53.630;55.972;2023-04-24T00:01:46;11.77;;;6.80;;
60086;SDS011;45960;53.630;55.972;2023-04-24T00:02:47;11.93;;;6.53;;
60086;SDS011;45960;53.630;55.972;2023-04-24T00:03:48;10.57;;;5.93;;
60086;SDS011;45960;53.630;55.972;2023-04-24T00:04:49;11.00;;;5.93;;
60086;SDS011;45960;53.630;55.972;2023-04-24T00:05:50;13.05;;;6.88;;
60086;SDS011;45960;53.630;55.972;2023-04-24T00:06:51;10.25;;;6.53;;
60086;SDS011;45960;53.630;55.972;2023-04-24T00:07:57;10.52;;;6.40;;
60086;SDS011;45960;53.630;55.972;2023-04-24T00:08:59;13.82;;;6.35;;
60086;SDS011;45960;53.630;55.972;2023-04-24T00:10:01;11.65;;;6.72;;
60086;SDS011;45960;53.630;55.972;2023-04-24T00:11:02;10.57;;;6.50;;
60086;SDS011;45960;53.630;55.972;2023-04-24T00:12:04;15.73;;;7.22;;
60086;SDS011;45960;53.630;55.972;2023-04-24T00:13:05;10.52;;;6.90;;
60086;SDS011;45960;53.630;55.972;2023-04-24T00:14:06;14.73;;;6.97;;
60086;SDS011;45960;53.630;55.972;2023-04-24T00:15:07;11.95;;;6.82;;
60086;SDS011;45960;53.630;55.972;2023-04-24T00:16:09;15.32;;;8.02;;
60086;SDS011;45960;53.630;55.972;2023-04-24T00:17:10;13.57;;;7.18;;
60086;SDS011;45960;53.630;55.972;2023-04-24T00:18:11;11.60;;;6.60;;
60086;SDS011;45960;53.630;55.972;2023-04-24T00:19:12;14.00;;;7.05;;
60086;SDS011;45960;53.630;55.972;2023-04-24T00:20:13;12.00;;;7.70;;
60086;SDS011;45960;53.630;55.972;2023-04-24T00:21:15;14.25;;;7.55;;
60086;SDS011;45960;53.630;55.972;2023-04-24T00:22:19;9.60;;;6.95;;
60086;SDS011;45960;53.630;55.972;2023-04-24T00:23:21;11.30;;;6.80;;
60086;SDS011;45960;53.630;55.972;2023-04-24T00:24:22;11.77;;;7.20;;
60086;SDS011;45960;53.630;55.972;2023-04-24T00:25:23;12.45;;;7.00;;
60086;SDS011;45960;53.630;55.972;2023-04-24T00:26:24;11.48;;;7.45;;
60086;SDS011;45960;53.630;55.972;2023-04-24T00:27:25;12.43;;;7.63;;
60086;SDS011;45960;53.630;55.972;2023-04-24T00:28:26;13.60;;;7.45;;
60086;SDS011;45960;53.630;55.972;2023-04-24T00:29:27;11.60;;;6.47;;
60086;SDS011;45960;53.630;55.972;2023-04-24T00:30:29;12.70;;;7.47;;
60086;SDS011;45960;53.630;55.972;2023-04-24T00:31:30;12.77;;;7.15;;
60086;SDS011;45960;53.630;55.972;2023-04-24T00:32:31;12.35;;;8.10;;
60086;SDS011;45960;53.630;55.972;2023-04-24T00:33:32;15.77;;;8.02;;
60086;SDS011;45960;53.630;55.972;2023-04-24T00:34:33;10.90;;;7.57;;
60086;SDS011;45960;53.630;55.972;2023-04-24T00:35:35;14.50;;;8.23;;
60086;SDS011;45960;53.630;55.972;2023-04-24T00:36:36;15.38;;;8.95;;
60086;SDS011;45960;53.630;55.972;2023-04-24T00:37:36;15.65;;;7.80;;
60086;SDS011;45960;53.630;55.972;2023-04-24T00:38:38;13.48;;;8.02;;
60086;SDS011;45960;53.630;55.972;2023-04-24T00:39:39;13.13;;;7.72;;
60086;SDS011;45960;53.630;55.972;2023-04-24T00:40:39;14.20;;;8.73;;
60086;SDS011;45960;53.630;55.972;2023-04-24T00:41:41;12.60;;;7.57;;
60086;SDS011;45960;53.630;55.972;2023-04-24T00:42:43;13.75;;;8.07;;
60086;SDS011;45960;53.630;55.972;2023-04-24T00:43:44;13.00;;;8.00;;
60086;SDS011;45960;53.630;55.972;2023-04-24T00:44:46;16.88;;;8.15;;
60086;SDS011;45960;53.630;55.972;2023-04-24T00:45:47;13.60;;;8.50;;
60086;SDS011;45960;53.630;55.972;2023-04-24T00:46:49;15.45;;;9.02;;
60086;SDS011;45960;53.630;55.972;2023-04-24T00:47:55;16.25;;;9.23;;
60086;SDS011;45960;53.630;55.972;2023-04-24T00:48:57;15.38;;;9.27;;
60086;SDS011;45960;53.630;55.972;2023-04-24T00:50:06;16.42;;;10.07;;
60086;SDS011;45960;53.630;55.972;2023-04-24T00:51:08;21.88;;;10.23;;
60086;SDS011;45960;53.630;55.972;2023-04-24T00:52:09;16.27;;;10.57;;
60086;SDS011;45960;53.630;55.972;2023-04-24T00:53:11;16.75;;;10.52;;
60086;SDS011;45960;53.630;55.972;2023-04-24T00:54:12;15.35;;;10.52;;
60086;SDS011;45960;53.630;55.972;2023-04-24T00:55:13;21.73;;;10.35;;
60086;SDS011;45960;53.630;55.972;2023-04-24T00:56:15;15.68;;;11.05;;
60086;SDS011;45960;53.630;55.972;2023-04-24T00:57:17;19.05;;;11.88;;
60086;SDS011;45960;53.630;55.972;2023-04-24T00:58:18;19.58;;;11.35;;
60086;SDS011;45960;53.630;55.972;2023-04-24T00:59:19;18.17;;;12.02;;
60086;SDS011;45960;53.630;55.972;2023-04-24T01:00:21;19.05;;;12.02;;
60086;SDS011;45960;53.630;55.972;2023-04-24T01:01:22;26.70;;;12.48;;
60086;SDS011;45960;53.630;55.972;2023-04-24T01:02:24;19.75;;;11.80;;
60086;SDS011;45960;53.630;55.972;2023-04-24T01:03:29;19.65;;;11.25;;
60086;SDS011;45960;53.630;55.972;2023-04-24T01:04:33;18.67;;;10.93;;
60086;SDS011;45960;53.630;55.972;2023-04-24T01:05:35;19.23;;;11.48;;
60086;SDS011;45960;53.630;55.972;2023-04-24T01:06:36;22.40;;;11.27;;
60086;SDS011;45960;53.630;55.972;2023-04-24T01:07:40;20.20;;;13.32;;
60086;SDS011;45960;53.630;55.972;2023-04-24T01:08:44;20.70;;;13.93;;
60086;SDS011;45960;53.630;55.972;2023-04-24T01:09:47;20.73;;;12.10;;
60086;SDS011;45960;53.630;55.972;2023-04-24T01:10:52;18.48;;;10.18;;
60086;SDS011;45960;53.630;55.972;2023-04-24T01:11:53;17.10;;;11.00;;
60086;SDS011;45960;53.630;55.972;2023-04-24T01:12:54;16.77;;;10.63;;
60086;SDS011;45960;53.630;55.972;2023-04-24T01:13:56;16.60;;;10.55;;
60086;SDS011;45960;53.630;55.972;2023-04-24T01:14:57;17.38;;;11.13;;
60086;SDS011;45960;53.630;55.972;2023-04-24T01:15:59;15.15;;;8.68;;
60086;SDS011;45960;53.630;55.972;2023-04-24T01:17:01;17.05;;;9.57;;
60086;SDS011;45960;53.630;55.972;2023-04-24T01:18:02;16.95;;;8.95;;
60086;SDS011;45960;53.630;55.972;2023-04-24T01:19:05;12.77;;;8.82;;
60086;SDS011;45960;53.630;55.972;2023-04-24T01:20:07;13.07;;;8.77;;
60086;SDS011;45960;53.630;55.972;2023-04-24T01:21:09;17.63;;;9.52;;
60086;SDS011;45960;53.630;55.972;2023-04-24T01:22:14;15.90;;;9.43;;
60086;SDS011;45960;53.630;55.972;2023-04-24T01:23:15;14.50;;;8.85;;
60086;SDS011;45960;53.630;55.972;2023-04-24T01:24:16;13.07;;;8.25;;
60086;SDS011;45960;53.630;55.972;2023-04-24T01:25:19;14.00;;;8.25;;
60086;SDS011;45960;53.630;55.972;2023-04-24T01:26:21;17.60;;;8.88;;
60086;SDS011;45960;53.630;55.972;2023-04-24T01:27:23;18.38;;;8.15;;
60086;SDS011;45960;53.630;55.972;2023-04-24T01:28:24;13.90;;;8.13;;
60086;SDS011;45960;53.630;55.972;2023-04-24T01:29:25;16.20;;;8.90;;
60086;SDS011;45960;53.630;55.972;2023-04-24T01:30:26;12.32;;;7.07;;
60086;SDS011;45960;53.630;55.972;2023-04-24T01:31:28;11.43;;;7.78;;
60086;SDS011;45960;53.630;55.972;2023-04-24T01:32:30;11.85;;;7.30;;
60086;SDS011;45960;53.630;55.972;2023-04-24T01:33:31;12.07;;;7.75;;
60086;SDS011;45960;53.630;55.972;2023-04-24T01:34:32;14.02;;;7.53;;
60086;SDS011;45960;53.630;55.972;2023-04-24T01:35:34;20.10;;;8.63;;
60086;SDS011;45960;53.630;55.972;2023-04-24T01:36:36;14.38;;;7.80;;
60086;SDS011;45960;53.630;55.972;2023-04-24T01:37:38;18.38;;;9.00;;
60086;SDS011;45960;53.630;55.972;2023-04-24T01:38:39;17.92;;;9.35;;
60086;SDS011;45960;53.630;55.972;2023-04-24T01:39:40;22.85;;;9.73;;
60086;SDS011;45960;53.630;55.972;2023-04-24T01:40:41;17.40;;;9.00;;
60086;SDS011;45960;53.630;55.972;2023-04-24T01:41:42;23.67;;;9.82;;
60086;SDS011;45960;53.630;55.972;2023-04-24T01:42:43;22.48;;;10.18;;
60086;SDS011;45960;53.630;55.972;2023-04-24T01:43:45;24.50;;;10.50;;
60086;SDS011;45960;53.630;55.972;2023-04-24T01:44:47;32.17;;;11.48;;
60086;SDS011;45960;53.630;55.972;2023-04-24T01:45:48;26.92;;;12.88;;
60086;SDS011;45960;53.630;55.972;2023-04-24T01:46:49;27.88;;;13.73;;
60086;SDS011;45960;53.630;55.972;2023-04-24T01:47:50;23.35;;;12.07;;
60086;SDS011;45960;53.630;55.972;2023-04-24T01:48:52;23.40;;;12.43;;
60086;SDS011;45960;53.630;55.972;2023-04-24T01:49:54;24.02;;;12.40;;
60086;SDS011;45960;53.630;55.972;2023-04-24T01:50:55;20.77;;;11.05;;
60086;SDS011;45960;53.630;55.972;2023-04-24T01:51:57;21.48;;;11.05;;
60086;SDS011;45960;53.630;55.972;2023-04-24T01:52:58;21.33;;;10.63;;
60086;SDS011;45960;53.630;55.972;2023-04-24T01:53:59;16.30;;;9.68;;
60086;SDS011;45960;53.630;55.972;2023-04-24T01:55:00;17.75;;;9.63;;
60086;SDS011;45960;53.630;55.972;2023-04-24T01:56:02;16.50;;;9.88;;
60086;SDS011;45960;53.630;55.972;2023-04-24T01:57:03;15.55;;;9.93;;
60086;SDS011;45960;53.630;55.972;2023-04-24T01:58:06;28.85;;;10.32;;
60086;SDS011;45960;53.630;55.972;2023-04-24T01:59:09;15.68;;;8.60;;
60086;SDS011;45960;53.630;55.972;2023-04-24T02:00:11;20.33;;;9.70;;
60086;SDS011;45960;53.630;55.972;2023-04-24T02:01:19;15.75;;;8.98;;
60086;SDS011;45960;53.630;55.972;2023-04-24T02:02:22;16.33;;;9.70;;
60086;SDS011;45960;53.630;55.972;2023-04-24T02:03:25;23.80;;;10.73;;
60086;SDS011;45960;53.630;55.972;2023-04-24T02:04:26;17.27;;;10.63;;
60086;SDS011;45960;53.630;55.972;2023-04-24T02:05:28;21.83;;;10.00;;
60086;SDS011;45960;53.630;55.972;2023-04-24T02:06:29;21.13;;;11.63;;
60086;SDS011;45960;53.630;55.972;2023-04-24T02:07:34;27.55;;;11.63;;
60086;SDS011;45960;53.630;55.972;2023-04-24T02:08:36;17.52;;;10.88;;
60086;SDS011;45960;53.630;55.972;2023-04-24T02:09:37;22.65;;;11.02;;
60086;SDS011;45960;53.630;55.972;2023-04-24T02:10:38;23.15;;;10.65;;
60086;SDS011;45960;53.630;55.972;2023-04-24T02:11:39;17.75;;;10.15;;
60086;SDS011;45960;53.630;55.972;2023-04-24T02:12:40;22.33;;;11.48;;
60086;SDS011;45960;53.630;55.972;2023-04-24T02:13:41;19.58;;;11.00;;
60086;SDS011;45960;53.630;55.972;2023-04-24T02:14:43;20.85;;;11.27;;
60086;SDS011;45960;53.630;55.972;2023-04-24T02:15:44;20.50;;;10.95;;
60086;SDS011;45960;53.630;55.972;2023-04-24T02:16:45;18.98;;;11.45;;
60086;SDS011;45960;53.630;55.972;2023-04-24T02:17:46;21.25;;;10.52;;
60086;SDS011;45960;53.630;55.972;2023-04-24T02:18:48;25.83;;;10.80;;
60086;SDS011;45960;53.630;55.972;2023-04-24T02:19:49;22.65;;;10.25;;
60086;SDS011;45960;53.630;55.972;2023-04-24T02:20:51;21.35;;;11.38;;
60086;SDS011;45960;53.630;55.972;2023-04-24T02:21:52;27.50;;;11.68;;
60086;SDS011;45960;53.630;55.972;2023-04-24T02:22:53;21.85;;;11.18;;
60086;SDS011;45960;53.630;55.972;2023-04-24T02:23:54;19.35;;;10.68;;
60086;SDS011;45960;53.630;55.972;2023-04-24T02:24:55;19.30;;;10.80;;
60086;SDS011;45960;53.630;55.972;2023-04-24T02:25:56;27.77;;;11.05;;
60086;SDS011;45960;53.630;55.972;2023-04-24T02:26:58;30.65;;;11.10;;
60086;SDS011;45960;53.630;55.972;2023-04-24T02:27:59;24.75;;;10.50;;
60086;SDS011;45960;53.630;55.972;2023-04-24T02:29:00;17.63;;;9.50;;
60086;SDS011;45960;53.630;55.972;2023-04-24T02:30:02;17.13;;;8.65;;
60086;SDS011;45960;53.630;55.972;2023-04-24T02:31:04;21.70;;;9.65;;
60086;SDS011;45960;53.630;55.972;2023-04-24T02:32:06;25.23;;;8.93;;
60086;SDS011;45960;53.630;55.972;2023-04-24T02:33:07;16.30;;;8.30;;
60086;SDS011;45960;53.630;55.972;2023-04-24T02:34:08;18.33;;;8.50;;
60086;SDS011;45960;53.630;55.972;2023-04-24T02:35:10;16.13;;;8.02;;
60086;SDS011;45960;53.630;55.972;2023-04-24T02:36:11;15.15;;;8.05;;
60086;SDS011;45960;53.630;55.972;2023-04-24T02:37:12;18.85;;;8.27;;
60086;SDS011;45960;53.630;55.972;2023-04-24T02:38:13;22.65;;;9.02;;
60086;SDS011;45960;53.630;55.972;2023-04-24T02:39:14;17.48;;;7.72;;
60086;SDS011;45960;53.630;55.972;2023-04-24T02:40:17;15.60;;;8.23;;
60086;SDS011;45960;53.630;55.972;2023-04-24T02:41:18;17.73;;;8.85;;
60086;SDS011;45960;53.630;55.972;2023-04-24T02:42:19;19.27;;;8.85;;
60086;SDS011;45960;53.630;55.972;2023-04-24T02:43:20;20.30;;;9.95;;
60086;SDS011;45960;53.630;55.972;2023-04-24T02:44:21;21.17;;;8.88;;
60086;SDS011;45960;53.630;55.972;2023-04-24T02:45:23;27.60;;;10.98;;
60086;SDS011;45960;53.630;55.972;2023-04-24T02:46:24;26.70;;;9.90;;
60086;SDS011;45960;53.630;55.972;2023-04-24T02:47:25;21.40;;;9.25;;
60086;SDS011;45960;53.630;55.972;2023-04-24T02:48:27;15.85;;;8.63;;
60086;SDS011;45960;53.630;55.972;2023-04-24T02:49:28;20.15;;;9.30;;
60086;SDS011;45960;53.630;55.972;2023-04-24T02:50:29;21.90;;;9.50;;
60086;SDS011;45960;53.630;55.972;2023-04-24T02:51:30;21.83;;;9.93;;
60086;SDS011;45960;53.630;55.972;2023-04-24T02:52:31;18.05;;;10.85;;
60086;SDS011;45960;53.630;55.972;2023-04-24T02:53:32;21.38;;;10.32;;
60086;SDS011;45960;53.630;55.972;2023-04-24T02:54:33;21.88;;;10.30;;
60086;SDS011;45960;53.630;55.972;2023-04-24T02:55:34;24.92;;;10.10;;
60086;SDS011;45960;53.630;55.972;2023-04-24T02:56:36;23.08;;;9.98;;
60086;SDS011;45960;53.630;55.972;2023-04-24T02:57:39;20.75;;;10.25;;
60086;SDS011;45960;53.630;55.972;2023-04-24T02:58:40;19.38;;;10.63;;
60086;SDS011;45960;53.630;55.972;2023-04-24T02:59:42;21.85;;;10.05;;
60086;SDS011;45960;53.630;55.972;2023-04-24T03:00:43;38.83;;;10.63;;
60086;SDS011;45960;53.630;55.972;2023-04-24T03:01:45;21.05;;;10.20;;
60086;SDS011;45960;53.630;55.972;2023-04-24T03:02:45;29.10;;;11.35;;
60086;SDS011;45960;53.630;55.972;2023-04-24T03:03:47;24.80;;;11.43;;
60086;SDS011;45960;53.630;55.972;2023-04-24T03:04:48;29.77;;;11.73;;
60086;SDS011;45960;53.630;55.972;2023-04-24T03:05:49;30.92;;;13.40;;
60086;SDS011;45960;53.630;55.972;2023-04-24T03:06:50;26.40;;;11.05;;
60086;SDS011;45960;53.630;55.972;2023-04-24T03:07:55;23.02;;;11.93;;
60086;SDS011;45960;53.630;55.972;2023-04-24T03:08:56;26.42;;;11.82;;
60086;SDS011;45960;53.630;55.972;2023-04-24T03:09:57;28.20;;;12.60;;
60086;SDS011;45960;53.630;55.972;2023-04-24T03:10:58;29.23;;;12.15;;
60086;SDS011;45960;53.630;55.972;2023-04-24T03:11:59;29.58;;;11.02;;
60086;SDS011;45960;53.630;55.972;2023-04-24T03:13:01;25.35;;;11.40;;
60086;SDS011;45960;53.630;55.972;2023-04-24T03:14:02;25.65;;;12.60;;
60086;SDS011;45960;53.630;55.972;2023-04-24T03:15:03;22.33;;;12.48;;
60086;SDS011;45960;53.630;55.972;2023-04-24T03:16:04;28.17;;;12.38;;
60086;SDS011;45960;53.630;55.972;2023-04-24T03:17:06;32.28;;;13.50;;
60086;SDS011;45960;53.630;55.972;2023-04-24T03:18:07;34.85;;;14.30;;
60086;SDS011;45960;53.630;55.972;2023-04-24T03:19:08;27.58;;;12.55;;
60086;SDS011;45960;53.630;55.972;2023-04-24T03:20:16;31.88;;;13.35;;
60086;SDS011;45960;53.630;55.972;2023-04-24T03:21:17;27.10;;;12.38;;
60086;SDS011;45960;53.630;55.972;2023-04-24T03:22:19;35.90;;;13.15;;
60086;SDS011;45960;53.630;55.972;2023-04-24T03:23:20;33.63;;;13.07;;
60086;SDS011;45960;53.630;55.972;2023-04-24T03:24:21;28.73;;;13.02;;
60086;SDS011;45960;53.630;55.972;2023-04-24T03:25:23;28.35;;;12.20;;
60086;SDS011;45960;53.630;55.972;2023-04-24T03:26:24;24.10;;;12.75;;
60086;SDS011;45960;53.630;55.972;2023-04-24T03:27:37;27.60;;;12.38;;
60086;SDS011;45960;53.630;55.972;2023-04-24T03:28:42;34.30;;;14.13;;
60086;SDS011;45960;53.630;55.972;2023-04-24T03:29:43;39.90;;;16.02;;
60086;SDS011;45960;53.630;55.972;2023-04-24T03:30:45;26.63;;;13.38;;
60086;SDS011;45960;53.630;55.972;2023-04-24T03:31:46;31.65;;;13.85;;
60086;SDS011;45960;53.630;55.972;2023-04-24T03:32:47;30.90;;;13.48;;
60086;SDS011;45960;53.630;55.972;2023-04-24T03:33:54;33.85;;;13.32;;
60086;SDS011;45960;53.630;55.972;2023-04-24T03:34:55;32.20;;;13.65;;
60086;SDS011;45960;53.630;55.972;2023-04-24T03:35:56;26.77;;;13.90;;
60086;SDS011;45960;53.630;55.972;2023-04-24T03:36:57;33.60;;;13.02;;
60086;SDS011;45960;53.630;55.972;2023-04-24T03:37:59;37.00;;;15.05;;
60086;SDS011;45960;53.630;55.972;2023-04-24T03:39:18;32.95;;;13.25;;
60086;SDS011;45960;53.630;55.972;2023-04-24T03:40:27;31.33;;;13.35;;
60086;SDS011;45960;53.630;55.972;2023-04-24T03:41:31;37.70;;;14.68;;
60086;SDS011;45960;53.630;55.972;2023-04-24T03:42:41;29.38;;;13.82;;
60086;SDS011;45960;53.630;55.972;2023-04-24T03:43:42;26.30;;;12.27;;
60086;SDS011;45960;53.630;55.972;2023-04-24T03:44:44;24.05;;;11.70;;
60086;SDS011;45960;53.630;55.972;2023-04-24T03:45:45;28.60;;;12.43;;
60086;SDS011;45960;53.630;55.972;2023-04-24T03:46:47;23.15;;;10.82;;
60086;SDS011;45960;53.630;55.972;2023-04-24T03:47:48;25.05;;;10.98;;
60086;SDS011;45960;53.630;55.972;2023-04-24T03:48:50;28.08;;;12.85;;
60086;SDS011;45960;53.630;55.972;2023-04-24T03:49:53;17.77;;;10.85;;
60086;SDS011;45960;53.630;55.972;2023-04-24T03:50:56;24.17;;;11.48;;
60086;SDS011;45960;53.630;55.972;2023-04-24T03:51:57;24.98;;;11.98;;
60086;SDS011;45960;53.630;55.972;2023-04-24T03:53:00;26.80;;;12.45;;
60086;SDS011;45960;53.630;55.972;2023-04-24T03:54:10;24.80;;;11.43;;
60086;SDS011;45960;53.630;55.972;2023-04-24T03:55:13;32.45;;;10.38;;
60086;SDS011;45960;53.630;55.972;2023-04-24T03:56:19;21.48;;;10.23;;
60086;SDS011;45960;53.630;55.972;2023-04-24T03:57:21;22.63;;;9.00;;
60086;SDS011;45960;53.630;55.972;2023-04-24T03:58:35;21.95;;;9.98;;
60086;SDS011;45960;53.630;55.972;2023-04-24T03:59:36;23.95;;;11.45;;
60086;SDS011;45960;53.630;55.972;2023-04-24T04:00:45;29.05;;;10.30;;
60086;SDS011;45960;53.630;55.972;2023-04-24T04:02:10;18.50;;;9.52;;
60086;SDS011;45960;53.630;55.972;2023-04-24T04:03:12;23.63;;;10.35;;
60086;SDS011;45960;53.630;55.972;2023-04-24T04:04:14;21.35;;;8.88;;
60086;SDS011;45960;53.630;55.972;2023-04-24T04:05:16;25.90;;;10.48;;
60086;SDS011;45960;53.630;55.972;2023-04-24T04:06:17;18.83;;;9.40;;
60086;SDS011;45960;53.630;55.972;2023-04-24T04:07:20;28.80;;;10.60;;
60086;SDS011;45960;53.630;55.972;2023-04-24T04:08:21;22.90;;;9.95;;
60086;SDS011;45960;53.630;55.972;2023-04-24T04:09:22;18.73;;;9.57;;
60086;SDS011;45960;53.630;55.972;2023-04-24T04:10:23;31.52;;;10.85;;
60086;SDS011;45960;53.630;55.972;2023-04-24T04:11:24;23.65;;;9.30;;
60086;SDS011;45960;53.630;55.972;2023-04-24T04:12:26;19.50;;;9.38;;
60086;SDS011;45960;53.630;55.972;2023-04-24T04:13:27;21.95;;;8.98;;
60086;SDS011;45960;53.630;55.972;2023-04-24T04:14:28;18.08;;;9.50;;
60086;SDS011;45960;53.630;55.972;2023-04-24T04:15:30;23.52;;;9.65;;
60086;SDS011;45960;53.630;55.972;2023-04-24T04:16:31;22.45;;;9.35;;
60086;SDS011;45960;53.630;55.972;2023-04-24T04:17:37;18.23;;;9.45;;
60086;SDS011;45960;53.630;55.972;2023-04-24T04:18:40;20.73;;;8.93;;
60086;SDS011;45960;53.630;55.972;2023-04-24T04:19:41;18.63;;;9.02;;
60086;SDS011;45960;53.630;55.972;2023-04-24T04:20:43;19.60;;;8.68;;
60086;SDS011;45960;53.630;55.972;2023-04-24T04:21:46;26.65;;;10.52;;
60086;SDS011;45960;53.630;55.972;2023-04-24T04:23:00;23.65;;;8.43;;
60086;SDS011;45960;53.630;55.972;2023-04-24T04:24:12;21.02;;;8.60;;
60086;SDS011;45960;53.630;55.972;2023-04-24T04:25:18;18.33;;;8.43;;
60086;SDS011;45960;53.630;55.972;2023-04-24T04:26:20;20.98;;;9.13;;
60086;SDS011;45960;53.630;55.972;2023-04-24T04:27:42;21.50;;;8.75;;
60086;SDS011;45960;53.630;55.972;2023-04-24T04:28:45;20.92;;;8.32;;
60086;SDS011;45960;53.630;55.972;2023-04-24T04:29:48;13.68;;;7.50;;
60086;SDS011;45960;53.630;55.972;2023-04-24T04:30:50;18.67;;;8.02;;
60086;SDS011;45960;53.630;55.972;2023-04-24T04:31:55;19.75;;;7.78;;
60086;SDS011;45960;53.630;55.972;2023-04-24T04:32:56;27.00;;;8.00;;
60086;SDS011;45960;53.630;55.972;2023-04-24T04:33:57;14.75;;;7.03;;
60086;SDS011;45960;53.630;55.972;2023-04-24T04:34:59;15.93;;;7.00;;
60086;SDS011;45960;53.630;55.972;2023-04-24T04:36:04;26.42;;;6.13;;
60086;SDS011;45960;53.630;55.972;2023-04-24T04:37:07;13.45;;;5.30;;
60086;SDS011;45960;53.630;55.972;2023-04-24T04:38:19;18.75;;;5.97;;
60086;SDS011;45960;53.630;55.972;2023-04-24T04:39:33;10.68;;;4.90;;
60086;SDS011;45960;53.630;55.972;2023-04-24T04:40:37;9.82;;;5.10;;
60086;SDS011;45960;53.630;55.972;2023-04-24T04:41:40;9.30;;;5.25;;
60086;SDS011;45960;53.630;55.972;2023-04-24T04:42:43;12.65;;;4.80;;
60086;SDS011;45960;53.630;55.972;2023-04-24T04:43:46;8.88;;;4.50;;
60086;SDS011;45960;53.630;55.972;2023-04-24T04:44:49;18.65;;;5.18;;
60086;SDS011;45960;53.630;55.972;2023-04-24T04:45:54;16.60;;;4.13;;
60086;SDS011;45960;53.630;55.972;2023-04-24T04:47:02;6.88;;;3.67;;
60086;SDS011;45960;53.630;55.972;2023-04-24T04:48:08;9.90;;;3.47;;
60086;SDS011;45960;53.630;55.972;2023-04-24T04:49:11;7.07;;;3.20;;
60086;SDS011;45960;53.630;55.972;2023-04-24T04:50:12;27.67;;;5.20;;
60086;SDS011;45960;53.630;55.972;2023-04-24T04:51:14;7.03;;;3.55;;
60086;SDS011;45960;53.630;55.972;2023-04-24T04:52:15;8.00;;;3.70;;
60086;SDS011;45960;53.630;55.972;2023-04-24T04:53:18;62.90;;;6.82;;
60086;SDS011;45960;53.630;55.972;2023-04-24T04:54:19;7.15;;;3.30;;
60086;SDS011;45960;53.630;55.972;2023-04-24T04:55:20;7.90;;;3.00;;
60086;SDS011;45960;53.630;55.972;2023-04-24T04:56:40;8.88;;;3.75;;
60086;SDS011;45960;53.630;55.972;2023-04-24T04:57:41;9.32;;;3.58;;
60086;SDS011;45960;53.630;55.972;2023-04-24T04:58:42;7.55;;;3.30;;
60086;SDS011;45960;53.630;55.972;2023-04-24T04:59:46;9.77;;;3.35;;
60086;SDS011;45960;53.630;55.972;2023-04-24T05:00:56;15.38;;;3.53;;
60086;SDS011;45960;53.630;55.972;2023-04-24T05:02:04;5.60;;;3.28;;
60086;SDS011;45960;53.630;55.972;2023-04-24T05:03:05;5.70;;;2.72;;
60086;SDS011;45960;53.630;55.972;2023-04-24T05:04:07;7.55;;;4.25;;
60086;SDS011;45960;53.630;55.972;2023-04-24T05:05:08;5.88;;;3.08;;
60086;SDS011;45960;53.630;55.972;2023-04-24T05:06:09;9.70;;;3.33;;
60086;SDS011;45960;53.630;55.972;2023-04-24T05:07:13;6.25;;;2.85;;
60086;SDS011;45960;53.630;55.972;2023-04-24T05:08:18;17.77;;;4.00;;
60086;SDS011;45960;53.630;55.972;2023-04-24T05:09:20;7.57;;;3.20;;
60086;SDS011;45960;53.630;55.972;2023-04-24T05:10:28;7.28;;;3.28;;
60086;SDS011;45960;53.630;55.972;2023-04-24T05:11:30;12.93;;;3.20;;
60086;SDS011;45960;53.630;55.972;2023-04-24T05:12:33;11.48;;;3.83;;
60086;SDS011;45960;53.630;55.972;2023-04-24T05:13:35;6.22;;;2.42;;
60086;SDS011;45960;53.630;55.972;2023-04-24T05:14:37;10.55;;;2.85;;
60086;SDS011;45960;53.630;55.972;2023-04-24T05:15:38;8.15;;;2.63;;
60086;SDS011;45960;53.630;55.972;2023-04-24T05:16:40;4.82;;;3.20;;
60086;SDS011;45960;53.630;55.972;2023-04-24T05:17:43;7.45;;;2.67;;
60086;SDS011;45960;53.630;55.972;2023-04-24T05:18:44;7.93;;;3.00;;
60086;SDS011;45960;53.630;55.972;2023-04-24T05:19:49;8.18;;;2.50;;
60086;SDS011;45960;53.630;55.972;2023-04-24T05:20:50;8.85;;;2.90;;
60086;SDS011;45960;53.630;55.972;2023-04-24T05:21:52;7.57;;;2.72;;
60086;SDS011;45960;53.630;55.972;2023-04-24T05:22:53;7.22;;;2.97;;
60086;SDS011;45960;53.630;55.972;2023-04-24T05:23:55;9.70;;;3.42;;
60086;SDS011;45960;53.630;55.972;2023-04-24T05:25:10;7.28;;;3.42;;
60086;SDS011;45960;53.630;55.972;2023-04-24T05:26:27;7.07;;;3.47;;
60086;SDS011;45960;53.630;55.972;2023-04-24T05:27:30;6.30;;;2.83;;
60086;SDS011;45960;53.630;55.972;2023-04-24T05:28:31;13.68;;;4.00;;
60086;SDS011;45960;53.630;55.972;2023-04-24T05:29:41;9.40;;;2.90;;
60086;SDS011;45960;53.630;55.972;2023-04-24T05:30:43;8.52;;;2.38;;
60086;SDS011;45960;53.630;55.972;2023-04-24T05:31:44;10.68;;;2.47;;
60086;SDS011;45960;53.630;55.972;2023-04-24T05:32:46;9.70;;;2.55;;
60086;SDS011;45960;53.630;55.972;2023-04-24T05:33:47;11.25;;;3.53;;
60086;SDS011;45960;53.630;55.972;2023-04-24T05:34:48;10.95;;;3.15;;
60086;SDS011;45960;53.630;55.972;2023-04-24T05:35:50;10.25;;;2.75;;
60086;SDS011;45960;53.630;55.972;2023-04-24T05:36:51;8.45;;;2.80;;
60086;SDS011;45960;53.630;55.972;2023-04-24T05:37:54;6.63;;;3.10;;
60086;SDS011;45960;53.630;55.972;2023-04-24T05:38:55;9.82;;;3.05;;
60086;SDS011;45960;53.630;55.972;2023-04-24T05:39:57;11.57;;;3.28;;
60086;SDS011;45960;53.630;55.972;2023-04-24T05:40:58;12.07;;;3.08;;
60086;SDS011;45960;53.630;55.972;2023-04-24T05:41:59;7.70;;;2.83;;
60086;SDS011;45960;53.630;55.972;2023-04-24T05:43:02;9.23;;;3.38;;
60086;SDS011;45960;53.630;55.972;2023-04-24T05:44:03;8.27;;;3.45;;
60086;SDS011;45960;53.630;55.972;2023-04-24T05:45:05;10.93;;;3.50;;
60086;SDS011;45960;53.630;55.972;2023-04-24T05:46:06;7.70;;;3.38;;
60086;SDS011;45960;53.630;55.972;2023-04-24T05:47:08;13.20;;;3.85;;
60086;SDS011;45960;53.630;55.972;2023-04-24T05:48:09;17.13;;;4.13;;
60086;SDS011;45960;53.630;55.972;2023-04-24T05:49:10;11.07;;;5.07;;
60086;SDS011;45960;53.630;55.972;2023-04-24T05:50:11;8.98;;;4.47;;
60086;SDS011;45960;53.630;55.972;2023-04-24T05:51:12;11.27;;;3.50;;
60086;SDS011;45960;53.630;55.972;2023-04-24T05:52:13;14.82;;;3.88;;
60086;SDS011;45960;53.630;55.972;2023-04-24T05:53:16;10.80;;;4.63;;
60086;SDS011;45960;53.630;55.972;2023-04-24T05:54:17;10.10;;;4.15;;
60086;SDS011;45960;53.630;55.972;2023-04-24T05:55:18;15.18;;;4.07;;
60086;SDS011;45960;53.630;55.972;2023-04-24T05:56:19;11.55;;;4.18;;
60086;SDS011;45960;53.630;55.972;2023-04-24T05:57:23;12.82;;;4.47;;
60086;SDS011;45960;53.630;55.972;2023-04-24T05:58:30;14.07;;;4.65;;
60086;SDS011;45960;53.630;55.972;2023-04-24T05:59:31;13.57;;;3.25;;
60086;SDS011;45960;53.630;55.972;2023-04-24T06:00:32;11.63;;;3.63;;
60086;SDS011;45960;53.630;55.972;2023-04-24T06:01:39;7.50;;;3.00;;
60086;SDS011;45960;53.630;55.972;2023-04-24T06:02:46;5.53;;;2.85;;
60086;SDS011;45960;53.630;55.972;2023-04-24T06:03:48;15.30;;;3.33;;
60086;SDS011;45960;53.630;55.972;2023-04-24T06:04:49;7.93;;;3.63;;